sensor_id;sensor_type;location;lat;lon;timestamp;P1;durP1;ratioP1;P2;durP2;ratioP2
66212;SDS011;53015;50.046;8.238;2024-02-28T00:02:24;26.58;;;16.80;;
66212;SDS011;53015;50.046;8.238;2024-02-28T00:04:50;27.60;;;15.30;;
66212;SDS011;53015;50.046;8.238;2024-02-28T00:07:15;24.30;;;14.77;;
66212;SDS011;53015;50.046;8.238;2024-02-28T00:09:41;26.60;;;15.43;;
66212;SDS011;53015;50.046;8.238;2024-02-28T00:12:08;27.50;;;15.77;;
66212;SDS011;53015;50.046;8.238;2024-02-28T00:14:33;27.52;;;16.27;;
66212;SDS011;53015;50.046;8.238;2024-02-28T00:16:59;25.10;;;15.40;;
66212;SDS011;53015;50.046;8.238;2024-02-28T00:19:24;25.08;;;14.40;;
66212;SDS011;53015;50.046;8.238;2024-02-28T00:21:50;26.27;;;15.45;;
66212;SDS011;53015;50.046;8.238;2024-02-28T00:24:15;26.13;;;15.25;;
66212;SDS011;53015;50.046;8.238;2024-02-28T00:26:41;25.55;;;15.52;;
66212;SDS011;53015;50.046;8.238;2024-02-28T00:29:09;29.55;;;16.10;;
66212;SDS011;53015;50.046;8.238;2024-02-28T00:31:34;26.95;;;15.20;;
66212;SDS011;53015;50.046;8.238;2024-02-28T00:34:00;26.55;;;15.20;;
66212;SDS011;53015;50.046;8.238;2024-02-28T00:36:25;24.88;;;14.65;;
66212;SDS011;53015;50.046;8.238;2024-02-28T00:38:51;24.35;;;14.25;;
66212;SDS011;53015;50.046;8.238;2024-02-28T00:41:17;25.50;;;14.48;;
66212;SDS011;53015;50.046;8.238;2024-02-28T00:43:42;26.35;;;14.80;;
66212;SDS011;53015;50.046;8.238;2024-02-28T00:46:09;24.17;;;14.35;;
66212;SDS011;53015;50.046;8.238;2024-02-28T00:48:35;26.67;;;14.48;;
66212;SDS011;53015;50.046;8.238;2024-02-28T00:51:00;23.50;;;14.43;;
66212;SDS011;53015;50.046;8.238;2024-02-28T00:53:26;22.55;;;13.50;;
66212;SDS011;53015;50.046;8.238;2024-02-28T00:55:51;24.30;;;13.85;;
66212;SDS011;53015;50.046;8.238;2024-02-28T00:58:16;22.00;;;12.68;;
66212;SDS011;53015;50.046;8.238;2024-02-28T01:00:42;21.05;;;12.20;;
66212;SDS011;53015;50.046;8.238;2024-02-28T01:03:09;19.88;;;13.18;;
66212;SDS011;53015;50.046;8.238;2024-02-28T01:05:34;22.58;;;12.95;;
66212;SDS011;53015;50.046;8.238;2024-02-28T01:08:00;23.10;;;13.00;;
66212;SDS011;53015;50.046;8.238;2024-02-28T01:10:26;20.00;;;13.00;;
66212;SDS011;53015;50.046;8.238;2024-02-28T01:12:51;20.08;;;12.85;;
66212;SDS011;53015;50.046;8.238;2024-02-28T01:15:17;24.48;;;13.40;;
66212;SDS011;53015;50.046;8.238;2024-02-28T01:17:42;19.95;;;12.13;;
66212;SDS011;53015;50.046;8.238;2024-02-28T01:20:10;22.33;;;13.35;;
66212;SDS011;53015;50.046;8.238;2024-02-28T01:22:36;27.30;;;15.30;;
66212;SDS011;53015;50.046;8.238;2024-02-28T01:25:02;27.80;;;16.85;;
66212;SDS011;53015;50.046;8.238;2024-02-28T01:27:27;29.02;;;16.73;;
66212;SDS011;53015;50.046;8.238;2024-02-28T01:29:53;29.27;;;17.13;;
66212;SDS011;53015;50.046;8.238;2024-02-28T01:32:18;30.92;;;17.10;;
66212;SDS011;53015;50.046;8.238;2024-02-28T01:34:44;29.60;;;17.13;;
66212;SDS011;53015;50.046;8.238;2024-02-28T01:37:11;31.90;;;18.02;;
66212;SDS011;53015;50.046;8.238;2024-02-28T01:39:36;30.38;;;17.92;;
66212;SDS011;53015;50.046;8.238;2024-02-28T01:42:02;29.73;;;17.92;;
66212;SDS011;53015;50.046;8.238;2024-02-28T01:44:28;30.70;;;18.40;;
66212;SDS011;53015;50.046;8.238;2024-02-28T01:46:53;31.08;;;18.35;;
66212;SDS011;53015;50.046;8.238;2024-02-28T01:49:19;33.00;;;18.65;;
66212;SDS011;53015;50.046;8.238;2024-02-28T01:51:44;33.22;;;18.23;;
66212;SDS011;53015;50.046;8.238;2024-02-28T01:54:13;31.65;;;17.15;;
66212;SDS011;53015;50.046;8.238;2024-02-28T01:56:39;33.67;;;17.70;;
66212;SDS011;53015;50.046;8.238;2024-02-28T01:59:05;33.40;;;18.25;;
66212;SDS011;53015;50.046;8.238;2024-02-28T02:01:30;31.60;;;17.75;;
66212;SDS011;53015;50.046;8.238;2024-02-28T02:03:56;30.67;;;17.63;;
66212;SDS011;53015;50.046;8.238;2024-02-28T02:06:22;30.10;;;17.35;;
66212;SDS011;53015;50.046;8.238;2024-02-28T02:08:47;29.48;;;17.42;;
66212;SDS011;53015;50.046;8.238;2024-02-28T02:11:15;29.00;;;16.98;;
66212;SDS011;53015;50.046;8.238;2024-02-28T02:13:48;28.70;;;16.52;;
66212;SDS011;53015;50.046;8.238;2024-02-28T02:16:14;28.75;;;16.15;;
66212;SDS011;53015;50.046;8.238;2024-02-28T02:18:40;28.05;;;16.42;;
66212;SDS011;53015;50.046;8.238;2024-02-28T02:21:05;31.42;;;16.27;;
66212;SDS011;53015;50.046;8.238;2024-02-28T02:23:34;29.77;;;15.75;;
66212;SDS011;53015;50.046;8.238;2024-02-28T02:25:59;26.45;;;15.93;;
66212;SDS011;53015;50.046;8.238;2024-02-28T02:28:25;28.92;;;15.65;;
66212;SDS011;53015;50.046;8.238;2024-02-28T02:30:50;26.35;;;15.45;;
66212;SDS011;53015;50.046;8.238;2024-02-28T02:33:16;26.90;;;15.95;;
66212;SDS011;53015;50.046;8.238;2024-02-28T02:35:41;29.60;;;16.40;;
66212;SDS011;53015;50.046;8.238;2024-02-28T02:38:06;27.45;;;15.40;;
66212;SDS011;53015;50.046;8.238;2024-02-28T02:40:33;29.90;;;16.58;;
66212;SDS011;53015;50.046;8.238;2024-02-28T02:42:59;27.02;;;15.57;;
66212;SDS011;53015;50.046;8.238;2024-02-28T02:45:24;30.85;;;16.98;;
66212;SDS011;53015;50.046;8.238;2024-02-28T02:47:50;31.60;;;17.10;;
66212;SDS011;53015;50.046;8.238;2024-02-28T02:50:15;29.80;;;16.55;;
66212;SDS011;53015;50.046;8.238;2024-02-28T02:52:41;32.67;;;16.83;;
66212;SDS011;53015;50.046;8.238;2024-02-28T02:55:06;31.13;;;16.85;;
66212;SDS011;53015;50.046;8.238;2024-02-28T02:57:35;31.52;;;17.08;;
66212;SDS011;53015;50.046;8.238;2024-02-28T03:00:01;28.73;;;16.30;;
66212;SDS011;53015;50.046;8.238;2024-02-28T03:02:26;32.30;;;17.25;;
66212;SDS011;53015;50.046;8.238;2024-02-28T03:04:51;30.42;;;17.70;;
66212;SDS011;53015;50.046;8.238;2024-02-28T03:07:17;32.90;;;16.58;;
66212;SDS011;53015;50.046;8.238;2024-02-28T03:09:42;30.70;;;16.70;;
66212;SDS011;53015;50.046;8.238;2024-02-28T03:12:08;32.22;;;17.70;;
66212;SDS011;53015;50.046;8.238;2024-02-28T03:14:36;34.53;;;17.40;;
66212;SDS011;53015;50.046;8.238;2024-02-28T03:17:02;31.63;;;16.42;;
66212;SDS011;53015;50.046;8.238;2024-02-28T03:19:27;36.88;;;18.02;;
66212;SDS011;53015;50.046;8.238;2024-02-28T03:21:53;28.52;;;16.55;;
66212;SDS011;53015;50.046;8.238;2024-02-28T03:24:19;31.45;;;17.25;;
66212;SDS011;53015;50.046;8.238;2024-02-28T03:26:46;32.08;;;16.75;;
66212;SDS011;53015;50.046;8.238;2024-02-28T03:29:11;31.42;;;16.27;;
66212;SDS011;53015;50.046;8.238;2024-02-28T03:31:38;33.05;;;16.85;;
66212;SDS011;53015;50.046;8.238;2024-02-28T03:34:03;32.13;;;16.90;;
66212;SDS011;53015;50.046;8.238;2024-02-28T03:36:29;31.52;;;16.50;;
66212;SDS011;53015;50.046;8.238;2024-02-28T03:38:55;31.40;;;15.93;;
66212;SDS011;53015;50.046;8.238;2024-02-28T03:41:20;33.88;;;16.58;;
66212;SDS011;53015;50.046;8.238;2024-02-28T03:43:47;31.48;;;16.73;;
66212;SDS011;53015;50.046;8.238;2024-02-28T03:46:12;34.67;;;16.70;;
66212;SDS011;53015;50.046;8.238;2024-02-28T03:48:39;28.48;;;15.93;;
66212;SDS011;53015;50.046;8.238;2024-02-28T03:51:05;31.75;;;16.90;;
66212;SDS011;53015;50.046;8.238;2024-02-28T03:53:30;32.22;;;16.63;;
66212;SDS011;53015;50.046;8.238;2024-02-28T03:55:56;30.65;;;16.33;;
66212;SDS011;53015;50.046;8.238;2024-02-28T03:58:21;35.55;;;16.83;;
66212;SDS011;53015;50.046;8.238;2024-02-28T04:00:47;31.70;;;16.35;;
66212;SDS011;53015;50.046;8.238;2024-02-28T04:03:12;33.85;;;17.25;;
66212;SDS011;53015;50.046;8.238;2024-02-28T04:05:39;34.15;;;16.35;;
66212;SDS011;53015;50.046;8.238;2024-02-28T04:08:05;34.83;;;17.40;;
66212;SDS011;53015;50.046;8.238;2024-02-28T04:10:31;33.47;;;16.25;;
66212;SDS011;53015;50.046;8.238;2024-02-28T04:12:56;34.55;;;17.33;;
66212;SDS011;53015;50.046;8.238;2024-02-28T04:15:22;29.33;;;16.48;;
66212;SDS011;53015;50.046;8.238;2024-02-28T04:17:47;29.52;;;15.75;;
66212;SDS011;53015;50.046;8.238;2024-02-28T04:20:13;31.85;;;15.95;;
66212;SDS011;53015;50.046;8.238;2024-02-28T04:22:40;30.05;;;15.77;;
66212;SDS011;53015;50.046;8.238;2024-02-28T04:25:06;30.15;;;15.57;;
66212;SDS011;53015;50.046;8.238;2024-02-28T04:27:33;30.52;;;15.45;;
66212;SDS011;53015;50.046;8.238;2024-02-28T04:29:58;33.13;;;15.90;;
66212;SDS011;53015;50.046;8.238;2024-02-28T04:32:24;32.83;;;15.20;;
66212;SDS011;53015;50.046;8.238;2024-02-28T04:34:49;29.98;;;15.55;;
66212;SDS011;53015;50.046;8.238;2024-02-28T04:37:15;29.50;;;14.60;;
66212;SDS011;53015;50.046;8.238;2024-02-28T04:39:42;29.38;;;15.30;;
66212;SDS011;53015;50.046;8.238;2024-02-28T04:42:07;29.35;;;14.68;;
66212;SDS011;53015;50.046;8.238;2024-02-28T04:44:33;27.40;;;14.68;;
66212;SDS011;53015;50.046;8.238;2024-02-28T04:46:58;30.52;;;15.60;;
66212;SDS011;53015;50.046;8.238;2024-02-28T04:49:24;31.05;;;14.93;;
66212;SDS011;53015;50.046;8.238;2024-02-28T04:51:50;29.02;;;15.43;;
66212;SDS011;53015;50.046;8.238;2024-02-28T04:54:15;29.45;;;14.90;;
66212;SDS011;53015;50.046;8.238;2024-02-28T04:56:43;28.83;;;14.50;;
66212;SDS011;53015;50.046;8.238;2024-02-28T04:59:08;32.30;;;15.00;;
66212;SDS011;53015;50.046;8.238;2024-02-28T05:01:36;31.55;;;14.88;;
66212;SDS011;53015;50.046;8.238;2024-02-28T05:04:01;27.75;;;14.55;;
66212;SDS011;53015;50.046;8.238;2024-02-28T05:06:26;27.38;;;14.23;;
66212;SDS011;53015;50.046;8.238;2024-02-28T05:08:52;27.40;;;14.52;;
66212;SDS011;53015;50.046;8.238;2024-02-28T05:11:18;31.55;;;14.05;;
66212;SDS011;53015;50.046;8.238;2024-02-28T05:13:45;27.10;;;13.85;;
66212;SDS011;53015;50.046;8.238;2024-02-28T05:16:13;28.20;;;14.15;;
66212;SDS011;53015;50.046;8.238;2024-02-28T05:18:39;28.88;;;14.32;;
66212;SDS011;53015;50.046;8.238;2024-02-28T05:21:04;28.27;;;14.93;;
66212;SDS011;53015;50.046;8.238;2024-02-28T05:23:30;30.15;;;15.18;;
66212;SDS011;53015;50.046;8.238;2024-02-28T05:25:55;26.25;;;14.40;;
66212;SDS011;53015;50.046;8.238;2024-02-28T05:28:21;28.40;;;14.30;;
66212;SDS011;53015;50.046;8.238;2024-02-28T05:30:48;28.05;;;14.70;;
66212;SDS011;53015;50.046;8.238;2024-02-28T05:33:14;28.65;;;14.07;;
66212;SDS011;53015;50.046;8.238;2024-02-28T05:35:39;28.52;;;13.93;;
66212;SDS011;53015;50.046;8.238;2024-02-28T05:38:05;27.80;;;14.55;;
66212;SDS011;53015;50.046;8.238;2024-02-28T05:40:30;27.02;;;13.75;;
66212;SDS011;53015;50.046;8.238;2024-02-28T05:42:56;25.08;;;13.05;;
66212;SDS011;53015;50.046;8.238;2024-02-28T05:45:21;26.20;;;14.13;;
66212;SDS011;53015;50.046;8.238;2024-02-28T05:47:48;29.02;;;14.55;;
66212;SDS011;53015;50.046;8.238;2024-02-28T05:50:14;28.20;;;14.32;;
66212;SDS011;53015;50.046;8.238;2024-02-28T05:52:41;27.13;;;13.85;;
66212;SDS011;53015;50.046;8.238;2024-02-28T05:55:07;25.95;;;13.35;;
66212;SDS011;53015;50.046;8.238;2024-02-28T05:57:32;26.08;;;13.60;;
66212;SDS011;53015;50.046;8.238;2024-02-28T05:59:58;28.80;;;14.10;;
66212;SDS011;53015;50.046;8.238;2024-02-28T06:02:24;27.17;;;14.27;;
66212;SDS011;53015;50.046;8.238;2024-02-28T06:04:51;27.48;;;13.48;;
66212;SDS011;53015;50.046;8.238;2024-02-28T06:07:16;26.13;;;13.60;;
66212;SDS011;53015;50.046;8.238;2024-02-28T06:09:42;24.60;;;12.23;;
66212;SDS011;53015;50.046;8.238;2024-02-28T06:12:08;25.38;;;13.68;;
66212;SDS011;53015;50.046;8.238;2024-02-28T06:14:34;28.33;;;14.57;;
66212;SDS011;53015;50.046;8.238;2024-02-28T06:16:59;26.08;;;13.02;;
66212;SDS011;53015;50.046;8.238;2024-02-28T06:19:25;27.77;;;14.27;;
66212;SDS011;53015;50.046;8.238;2024-02-28T06:21:52;28.80;;;14.13;;
66212;SDS011;53015;50.046;8.238;2024-02-28T06:24:17;29.23;;;14.23;;
66212;SDS011;53015;50.046;8.238;2024-02-28T06:26:43;28.55;;;13.63;;
66212;SDS011;53015;50.046;8.238;2024-02-28T06:29:08;25.95;;;12.75;;
66212;SDS011;53015;50.046;8.238;2024-02-28T06:31:34;27.17;;;13.30;;
66212;SDS011;53015;50.046;8.238;2024-02-28T06:34:00;26.38;;;13.95;;
66212;SDS011;53015;50.046;8.238;2024-02-28T06:36:25;28.42;;;14.18;;
66212;SDS011;53015;50.046;8.238;2024-02-28T06:38:52;28.42;;;13.20;;
66212;SDS011;53015;50.046;8.238;2024-02-28T06:41:18;26.25;;;13.57;;
66212;SDS011;53015;50.046;8.238;2024-02-28T06:43:43;25.60;;;13.45;;
66212;SDS011;53015;50.046;8.238;2024-02-28T06:46:09;30.33;;;14.30;;
66212;SDS011;53015;50.046;8.238;2024-02-28T06:48:34;30.58;;;14.25;;
66212;SDS011;53015;50.046;8.238;2024-02-28T06:51:00;31.30;;;14.27;;
66212;SDS011;53015;50.046;8.238;2024-02-28T06:53:25;32.47;;;15.40;;
66212;SDS011;53015;50.046;8.238;2024-02-28T06:55:53;27.88;;;13.98;;
66212;SDS011;53015;50.046;8.238;2024-02-28T06:58:19;31.20;;;14.30;;
66212;SDS011;53015;50.046;8.238;2024-02-28T07:00:45;28.02;;;14.05;;
66212;SDS011;53015;50.046;8.238;2024-02-28T07:03:11;31.13;;;14.93;;
66212;SDS011;53015;50.046;8.238;2024-02-28T07:05:36;31.95;;;14.88;;
66212;SDS011;53015;50.046;8.238;2024-02-28T07:08:02;27.00;;;14.18;;
66212;SDS011;53015;50.046;8.238;2024-02-28T07:10:28;30.75;;;14.90;;
66212;SDS011;53015;50.046;8.238;2024-02-28T07:12:55;28.75;;;13.73;;
66212;SDS011;53015;50.046;8.238;2024-02-28T07:15:20;25.27;;;13.10;;
66212;SDS011;53015;50.046;8.238;2024-02-28T07:17:46;24.75;;;13.00;;
66212;SDS011;53015;50.046;8.238;2024-02-28T07:20:12;27.00;;;13.20;;
66212;SDS011;53015;50.046;8.238;2024-02-28T07:22:37;26.83;;;13.82;;
66212;SDS011;53015;50.046;8.238;2024-02-28T07:25:03;28.33;;;13.38;;
66212;SDS011;53015;50.046;8.238;2024-02-28T07:27:30;29.40;;;13.20;;
66212;SDS011;53015;50.046;8.238;2024-02-28T07:29:57;23.75;;;12.88;;
66212;SDS011;53015;50.046;8.238;2024-02-28T07:32:22;26.77;;;13.30;;
66212;SDS011;53015;50.046;8.238;2024-02-28T07:34:48;29.52;;;14.18;;
66212;SDS011;53015;50.046;8.238;2024-02-28T07:37:13;24.05;;;12.88;;
66212;SDS011;53015;50.046;8.238;2024-02-28T07:39:39;28.10;;;14.15;;
66212;SDS011;53015;50.046;8.238;2024-02-28T07:42:04;29.60;;;14.07;;
66212;SDS011;53015;50.046;8.238;2024-02-28T07:44:30;27.75;;;14.55;;
66212;SDS011;53015;50.046;8.238;2024-02-28T07:46:57;28.02;;;13.50;;
66212;SDS011;53015;50.046;8.238;2024-02-28T07:49:23;30.08;;;13.68;;
66212;SDS011;53015;50.046;8.238;2024-02-28T07:51:49;29.02;;;13.95;;
66212;SDS011;53015;50.046;8.238;2024-02-28T07:54:15;29.98;;;14.40;;
66212;SDS011;53015;50.046;8.238;2024-02-28T07:56:40;29.30;;;13.90;;
66212;SDS011;53015;50.046;8.238;2024-02-28T07:59:06;31.83;;;14.52;;
66212;SDS011;53015;50.046;8.238;2024-02-28T08:01:31;34.75;;;15.40;;
66212;SDS011;53015;50.046;8.238;2024-02-28T08:03:58;30.67;;;14.98;;
66212;SDS011;53015;50.046;8.238;2024-02-28T08:06:24;33.80;;;14.13;;
66212;SDS011;53015;50.046;8.238;2024-02-28T08:08:49;29.33;;;14.02;;
66212;SDS011;53015;50.046;8.238;2024-02-28T08:11:15;29.90;;;14.43;;
66212;SDS011;53015;50.046;8.238;2024-02-28T08:13:40;27.08;;;13.93;;
66212;SDS011;53015;50.046;8.238;2024-02-28T08:16:06;29.52;;;15.18;;
66212;SDS011;53015;50.046;8.238;2024-02-28T08:18:31;30.38;;;14.90;;
66212;SDS011;53015;50.046;8.238;2024-02-28T08:20:58;29.13;;;13.98;;
66212;SDS011;53015;50.046;8.238;2024-02-28T08:23:24;29.75;;;14.88;;
66212;SDS011;53015;50.046;8.238;2024-02-28T08:25:50;30.77;;;14.27;;
66212;SDS011;53015;50.046;8.238;2024-02-28T08:28:15;27.95;;;14.05;;
66212;SDS011;53015;50.046;8.238;2024-02-28T08:30:41;27.73;;;14.52;;
66212;SDS011;53015;50.046;8.238;2024-02-28T08:33:06;30.75;;;14.70;;
66212;SDS011;53015;50.046;8.238;2024-02-28T08:35:32;31.13;;;14.73;;
66212;SDS011;53015;50.046;8.238;2024-02-28T08:37:59;27.50;;;14.15;;
66212;SDS011;53015;50.046;8.238;2024-02-28T08:40:24;27.65;;;14.23;;
66212;SDS011;53015;50.046;8.238;2024-02-28T08:42:50;27.35;;;13.68;;
66212;SDS011;53015;50.046;8.238;2024-02-28T08:45:15;26.38;;;14.23;;
66212;SDS011;53015;50.046;8.238;2024-02-28T08:47:41;25.27;;;13.13;;
66212;SDS011;53015;50.046;8.238;2024-02-28T08:50:06;26.50;;;13.13;;
66212;SDS011;53015;50.046;8.238;2024-02-28T08:52:32;24.70;;;13.38;;
66212;SDS011;53015;50.046;8.238;2024-02-28T08:54:59;23.45;;;12.15;;
66212;SDS011;53015;50.046;8.238;2024-02-28T08:57:25;22.35;;;11.80;;
66212;SDS011;53015;50.046;8.238;2024-02-28T08:59:50;22.17;;;11.63;;
66212;SDS011;53015;50.046;8.238;2024-02-28T09:02:16;22.95;;;11.57;;
66212;SDS011;53015;50.046;8.238;2024-02-28T09:04:41;21.00;;;11.20;;
66212;SDS011;53015;50.046;8.238;2024-02-28T09:07:07;20.67;;;11.63;;
66212;SDS011;53015;50.046;8.238;2024-02-28T09:09:32;22.27;;;11.30;;
66212;SDS011;53015;50.046;8.238;2024-02-28T09:11:59;22.25;;;11.40;;
66212;SDS011;53015;50.046;8.238;2024-02-28T09:14:25;21.23;;;11.63;;
66212;SDS011;53015;50.046;8.238;2024-02-28T09:16:51;21.92;;;11.43;;
66212;SDS011;53015;50.046;8.238;2024-02-28T09:19:16;22.15;;;11.65;;
66212;SDS011;53015;50.046;8.238;2024-02-28T09:21:42;24.27;;;11.07;;
66212;SDS011;53015;50.046;8.238;2024-02-28T09:24:07;21.27;;;11.32;;
66212;SDS011;53015;50.046;8.238;2024-02-28T09:26:33;19.88;;;10.75;;
66212;SDS011;53015;50.046;8.238;2024-02-28T09:28:59;22.50;;;11.55;;
66212;SDS011;53015;50.046;8.238;2024-02-28T09:31:25;18.65;;;11.15;;
66212;SDS011;53015;50.046;8.238;2024-02-28T09:33:50;20.92;;;11.55;;
66212;SDS011;53015;50.046;8.238;2024-02-28T09:36:16;20.85;;;10.88;;
66212;SDS011;53015;50.046;8.238;2024-02-28T09:38:41;21.85;;;11.57;;
66212;SDS011;53015;50.046;8.238;2024-02-28T09:41:07;20.55;;;10.30;;
66212;SDS011;53015;50.046;8.238;2024-02-28T09:43:35;22.90;;;12.23;;
66212;SDS011;53015;50.046;8.238;2024-02-28T09:46:07;21.38;;;11.48;;
66212;SDS011;53015;50.046;8.238;2024-02-28T09:48:33;22.20;;;12.35;;
66212;SDS011;53015;50.046;8.238;2024-02-28T09:50:59;23.70;;;11.27;;
66212;SDS011;53015;50.046;8.238;2024-02-28T09:53:25;18.60;;;10.65;;
66212;SDS011;53015;50.046;8.238;2024-02-28T09:55:51;22.13;;;11.52;;
66212;SDS011;53015;50.046;8.238;2024-02-28T09:58:17;21.15;;;11.45;;
66212;SDS011;53015;50.046;8.238;2024-02-28T10:00:44;21.33;;;11.52;;
66212;SDS011;53015;50.046;8.238;2024-02-28T10:03:11;20.75;;;11.00;;
66212;SDS011;53015;50.046;8.238;2024-02-28T10:05:38;20.10;;;11.05;;
66212;SDS011;53015;50.046;8.238;2024-02-28T10:08:04;18.02;;;9.82;;
66212;SDS011;53015;50.046;8.238;2024-02-28T10:10:30;19.95;;;11.13;;
66212;SDS011;53015;50.046;8.238;2024-02-28T10:12:56;25.15;;;11.63;;
66212;SDS011;53015;50.046;8.238;2024-02-28T10:15:22;20.17;;;11.38;;
66212;SDS011;53015;50.046;8.238;2024-02-28T10:17:47;16.65;;;10.05;;
66212;SDS011;53015;50.046;8.238;2024-02-28T10:20:14;18.52;;;10.45;;
66212;SDS011;53015;50.046;8.238;2024-02-28T10:22:40;20.58;;;11.05;;
66212;SDS011;53015;50.046;8.238;2024-02-28T10:25:06;20.80;;;11.05;;
66212;SDS011;53015;50.046;8.238;2024-02-28T10:27:32;21.35;;;10.98;;
66212;SDS011;53015;50.046;8.238;2024-02-28T10:29:58;18.02;;;10.43;;
66212;SDS011;53015;50.046;8.238;2024-02-28T10:32:24;23.33;;;11.63;;
66212;SDS011;53015;50.046;8.238;2024-02-28T10:34:49;19.10;;;10.43;;
66212;SDS011;53015;50.046;8.238;2024-02-28T10:37:17;17.42;;;9.60;;
66212;SDS011;53015;50.046;8.238;2024-02-28T10:39:45;20.25;;;11.20;;
66212;SDS011;53015;50.046;8.238;2024-02-28T10:42:10;17.88;;;11.02;;
66212;SDS011;53015;50.046;8.238;2024-02-28T10:44:37;22.20;;;11.43;;
66212;SDS011;53015;50.046;8.238;2024-02-28T10:47:04;19.77;;;11.68;;
66212;SDS011;53015;50.046;8.238;2024-02-28T10:49:33;21.98;;;11.43;;
66212;SDS011;53015;50.046;8.238;2024-02-28T10:51:58;22.08;;;12.20;;
66212;SDS011;53015;50.046;8.238;2024-02-28T10:54:25;26.98;;;12.75;;
66212;SDS011;53015;50.046;8.238;2024-02-28T10:56:54;33.17;;;13.02;;
66212;SDS011;53015;50.046;8.238;2024-02-28T10:59:19;26.05;;;13.13;;
66212;SDS011;53015;50.046;8.238;2024-02-28T11:01:48;26.88;;;13.02;;
66212;SDS011;53015;50.046;8.238;2024-02-28T11:04:15;25.77;;;12.70;;
66212;SDS011;53015;50.046;8.238;2024-02-28T11:06:48;22.35;;;12.77;;
66212;SDS011;53015;50.046;8.238;2024-02-28T11:09:18;24.13;;;11.90;;
66212;SDS011;53015;50.046;8.238;2024-02-28T11:11:45;23.60;;;12.18;;
66212;SDS011;53015;50.046;8.238;2024-02-28T11:14:14;21.67;;;11.65;;
66212;SDS011;53015;50.046;8.238;2024-02-28T11:16:41;22.67;;;12.02;;
66212;SDS011;53015;50.046;8.238;2024-02-28T11:19:06;25.17;;;12.07;;
66212;SDS011;53015;50.046;8.238;2024-02-28T11:21:34;26.23;;;11.60;;
66212;SDS011;53015;50.046;8.238;2024-02-28T11:24:00;20.25;;;11.07;;
66212;SDS011;53015;50.046;8.238;2024-02-28T11:26:26;21.83;;;11.35;;
66212;SDS011;53015;50.046;8.238;2024-02-28T11:28:53;20.40;;;10.75;;
66212;SDS011;53015;50.046;8.238;2024-02-28T11:31:20;20.17;;;11.13;;
66212;SDS011;53015;50.046;8.238;2024-02-28T11:33:46;21.92;;;10.60;;
66212;SDS011;53015;50.046;8.238;2024-02-28T11:36:12;27.95;;;11.68;;
66212;SDS011;53015;50.046;8.238;2024-02-28T11:38:38;20.20;;;10.80;;
66212;SDS011;53015;50.046;8.238;2024-02-28T11:41:03;19.88;;;11.10;;
66212;SDS011;53015;50.046;8.238;2024-02-28T11:43:30;22.42;;;10.63;;
66212;SDS011;53015;50.046;8.238;2024-02-28T11:45:57;19.60;;;10.55;;
66212;SDS011;53015;50.046;8.238;2024-02-28T11:48:23;20.63;;;11.45;;
66212;SDS011;53015;50.046;8.238;2024-02-28T11:50:50;19.58;;;10.38;;
66212;SDS011;53015;50.046;8.238;2024-02-28T11:53:16;23.25;;;11.57;;
66212;SDS011;53015;50.046;8.238;2024-02-28T11:55:41;19.30;;;10.52;;
66212;SDS011;53015;50.046;8.238;2024-02-28T11:58:07;18.58;;;10.63;;
66212;SDS011;53015;50.046;8.238;2024-02-28T12:00:33;20.10;;;9.20;;
66212;SDS011;53015;50.046;8.238;2024-02-28T12:03:05;14.20;;;8.95;;
66212;SDS011;53015;50.046;8.238;2024-02-28T12:05:30;19.02;;;10.68;;
66212;SDS011;53015;50.046;8.238;2024-02-28T12:07:56;16.67;;;9.90;;
66212;SDS011;53015;50.046;8.238;2024-02-28T12:10:22;18.10;;;9.15;;
66212;SDS011;53015;50.046;8.238;2024-02-28T12:12:47;14.40;;;8.63;;
66212;SDS011;53015;50.046;8.238;2024-02-28T12:15:13;16.17;;;9.25;;
66212;SDS011;53015;50.046;8.238;2024-02-28T12:17:39;15.05;;;8.18;;
66212;SDS011;53015;50.046;8.238;2024-02-28T12:20:07;14.63;;;8.00;;
66212;SDS011;53015;50.046;8.238;2024-02-28T12:22:35;14.60;;;8.60;;
66212;SDS011;53015;50.046;8.238;2024-02-28T12:25:00;15.57;;;8.52;;
66212;SDS011;53015;50.046;8.238;2024-02-28T12:27:26;14.60;;;7.70;;
66212;SDS011;53015;50.046;8.238;2024-02-28T12:29:51;15.70;;;9.25;;
66212;SDS011;53015;50.046;8.238;2024-02-28T12:32:17;15.18;;;9.05;;
66212;SDS011;53015;50.046;8.238;2024-02-28T12:34:42;13.55;;;8.00;;
66212;SDS011;53015;50.046;8.238;2024-02-28T12:37:10;13.43;;;8.55;;
66212;SDS011;53015;50.046;8.238;2024-02-28T12:39:35;14.55;;;7.47;;
66212;SDS011;53015;50.046;8.238;2024-02-28T12:42:01;14.70;;;7.88;;
66212;SDS011;53015;50.046;8.238;2024-02-28T12:44:26;14.60;;;8.30;;
66212;SDS011;53015;50.046;8.238;2024-02-28T12:46:52;17.33;;;8.60;;
66212;SDS011;53015;50.046;8.238;2024-02-28T12:49:17;12.85;;;7.80;;
66212;SDS011;53015;50.046;8.238;2024-02-28T12:51:43;12.90;;;7.97;;
66212;SDS011;53015;50.046;8.238;2024-02-28T12:54:12;15.48;;;8.65;;
66212;SDS011;53015;50.046;8.238;2024-02-28T12:56:38;16.90;;;7.68;;
66212;SDS011;53015;50.046;8.238;2024-02-28T12:59:04;14.32;;;9.00;;
66212;SDS011;53015;50.046;8.238;2024-02-28T13:01:30;14.63;;;8.63;;
66212;SDS011;53015;50.046;8.238;2024-02-28T13:03:56;15.38;;;8.57;;
66212;SDS011;53015;50.046;8.238;2024-02-28T13:06:21;14.95;;;8.10;;
66212;SDS011;53015;50.046;8.238;2024-02-28T13:08:47;11.30;;;7.20;;
66212;SDS011;53015;50.046;8.238;2024-02-28T13:11:14;14.13;;;7.57;;
66212;SDS011;53015;50.046;8.238;2024-02-28T13:13:39;12.00;;;7.18;;
66212;SDS011;53015;50.046;8.238;2024-02-28T13:16:05;11.43;;;7.28;;
66212;SDS011;53015;50.046;8.238;2024-02-28T13:18:30;15.88;;;7.90;;
66212;SDS011;53015;50.046;8.238;2024-02-28T13:20:56;10.95;;;7.05;;
66212;SDS011;53015;50.046;8.238;2024-02-28T13:23:21;10.55;;;6.07;;
66212;SDS011;53015;50.046;8.238;2024-02-28T13:25:47;11.43;;;7.28;;
66212;SDS011;53015;50.046;8.238;2024-02-28T13:28:14;17.52;;;9.13;;
66212;SDS011;53015;50.046;8.238;2024-02-28T13:30:39;15.48;;;8.07;;
66212;SDS011;53015;50.046;8.238;2024-02-28T13:33:05;16.50;;;8.73;;
66212;SDS011;53015;50.046;8.238;2024-02-28T13:35:31;14.20;;;7.72;;
66212;SDS011;53015;50.046;8.238;2024-02-28T13:37:57;13.88;;;7.88;;
66212;SDS011;53015;50.046;8.238;2024-02-28T13:40:22;12.38;;;7.43;;
66212;SDS011;53015;50.046;8.238;2024-02-28T13:42:48;12.07;;;6.97;;
66212;SDS011;53015;50.046;8.238;2024-02-28T13:45:15;12.88;;;6.93;;
66212;SDS011;53015;50.046;8.238;2024-02-28T13:47:40;9.90;;;6.20;;
66212;SDS011;53015;50.046;8.238;2024-02-28T13:50:06;10.65;;;6.03;;
66212;SDS011;53015;50.046;8.238;2024-02-28T13:52:31;9.77;;;6.00;;
66212;SDS011;53015;50.046;8.238;2024-02-28T13:54:57;12.85;;;6.07;;
66212;SDS011;53015;50.046;8.238;2024-02-28T13:57:22;7.40;;;5.22;;
66212;SDS011;53015;50.046;8.238;2024-02-28T13:59:48;10.82;;;6.88;;
66212;SDS011;53015;50.046;8.238;2024-02-28T14:02:15;10.65;;;5.40;;
66212;SDS011;53015;50.046;8.238;2024-02-28T14:04:41;10.73;;;5.75;;
66212;SDS011;53015;50.046;8.238;2024-02-28T14:07:06;9.00;;;5.35;;
66212;SDS011;53015;50.046;8.238;2024-02-28T14:09:32;9.90;;;5.63;;
66212;SDS011;53015;50.046;8.238;2024-02-28T14:11:57;8.00;;;5.20;;
66212;SDS011;53015;50.046;8.238;2024-02-28T14:14:23;7.95;;;4.97;;
66212;SDS011;53015;50.046;8.238;2024-02-28T14:16:48;10.38;;;5.20;;